createdAt,value
2017-08-30T00:00:02.423Z,7.50
2017-08-30T00:02:29.997Z,6.87
2017-08-30T00:04:57.498Z,6.77
2017-08-30T00:07:25.019Z,6.97
2017-08-30T00:09:52.534Z,7.33
2017-08-30T00:12:20.058Z,7.00
2017-08-30T00:14:47.538Z,6.97
2017-08-30T00:17:15.093Z,7.30
2017-08-30T00:19:42.662Z,8.03
2017-08-30T00:22:10.157Z,7.17
2017-08-30T00:24:49.677Z,7.30
2017-08-30T00:27:17.177Z,7.03
2017-08-30T00:29:44.674Z,7.60
2017-08-30T00:32:12.209Z,6.80
2017-08-30T00:34:39.722Z,7.40
2017-08-30T00:37:07.229Z,7.07
2017-08-30T00:39:34.797Z,6.67
2017-08-30T00:42:02.393Z,6.60
2017-08-30T00:44:29.876Z,6.63
2017-08-30T00:46:57.402Z,7.63
2017-08-30T00:49:25.044Z,7.20
2017-08-30T00:51:52.766Z,6.63
2017-08-30T00:54:20.310Z,6.83
2017-08-30T00:56:47.801Z,6.63
2017-08-30T00:59:15.342Z,7.17
2017-08-30T01:01:42.848Z,7.20
2017-08-30T01:04:10.375Z,7.57
2017-08-30T01:06:37.945Z,6.47
2017-08-30T01:09:05.542Z,6.70
2017-08-30T01:11:33.107Z,7.20
2017-08-30T01:14:00.635Z,7.10
2017-08-30T01:16:28.126Z,6.97
2017-08-30T01:18:55.633Z,5.77
2017-08-30T01:21:23.177Z,6.80
2017-08-30T01:23:50.810Z,7.00
2017-08-30T01:26:18.338Z,6.97
2017-08-30T01:28:45.840Z,6.13
2017-08-30T01:31:13.378Z,6.87
2017-08-30T01:33:40.922Z,6.93
2017-08-30T01:36:08.433Z,7.03
2017-08-30T01:38:35.962Z,6.80
2017-08-30T01:41:03.578Z,6.90
2017-08-30T01:43:31.095Z,6.20
2017-08-30T01:45:58.680Z,7.90
2017-08-30T01:48:26.207Z,6.63
2017-08-30T01:50:53.726Z,6.77
2017-08-30T01:53:21.238Z,6.90
2017-08-30T01:55:48.865Z,6.40
2017-08-30T01:58:16.375Z,6.70
2017-08-30T02:00:43.885Z,6.77
2017-08-30T02:03:11.402Z,6.63
2017-08-30T02:05:38.905Z,6.47
2017-08-30T02:08:06.401Z,6.27
2017-08-30T02:10:33.913Z,6.07
2017-08-30T02:13:02.196Z,5.93
2017-08-30T02:15:29.713Z,6.57
2017-08-30T02:17:57.415Z,6.20
2017-08-30T02:20:24.955Z,6.63
2017-08-30T02:22:52.615Z,6.70
2017-08-30T02:25:20.122Z,6.20
2017-08-30T02:27:47.725Z,6.10
2017-08-30T02:30:15.254Z,6.80
2017-08-30T02:32:42.756Z,5.80
2017-08-30T02:35:10.277Z,6.70
2017-08-30T02:37:37.772Z,6.53
2017-08-30T02:40:05.265Z,6.40
2017-08-30T02:42:32.781Z,6.60
2017-08-30T02:45:00.274Z,5.90
2017-08-30T02:47:27.796Z,5.97
2017-08-30T02:49:55.310Z,5.87
2017-08-30T02:52:22.897Z,6.10
2017-08-30T02:54:50.398Z,6.33
2017-08-30T02:57:17.925Z,5.77
2017-08-30T02:59:45.428Z,6.33
2017-08-30T03:02:12.952Z,6.00
2017-08-30T03:04:40.460Z,5.50
2017-08-30T03:07:07.976Z,6.20
2017-08-30T03:09:35.488Z,6.30
2017-08-30T03:12:02.986Z,6.20
2017-08-30T03:14:30.513Z,6.17
2017-08-30T03:16:58.030Z,6.70
2017-08-30T03:19:25.525Z,6.07
2017-08-30T03:21:53.043Z,6.50
2017-08-30T03:24:20.544Z,5.60
2017-08-30T03:26:48.039Z,6.27
2017-08-30T03:29:15.549Z,6.30
2017-08-30T03:31:43.117Z,6.13
2017-08-30T03:34:10.709Z,5.67
2017-08-30T03:36:38.278Z,5.40
2017-08-30T03:39:05.914Z,6.17
2017-08-30T03:41:33.495Z,5.77
2017-08-30T03:44:01.000Z,6.20
2017-08-30T03:46:28.715Z,6.00
2017-08-30T03:48:56.234Z,5.90
2017-08-30T03:51:23.737Z,5.40
2017-08-30T03:53:51.372Z,5.50
2017-08-30T03:56:18.914Z,5.67
2017-08-30T03:58:46.441Z,6.20
2017-08-30T04:01:13.942Z,5.77
2017-08-30T04:03:41.493Z,5.17
2017-08-30T04:06:09.054Z,5.40
2017-08-30T04:08:36.565Z,5.70
2017-08-30T04:11:04.203Z,5.63
2017-08-30T04:13:31.721Z,7.60
2017-08-30T04:15:59.177Z,6.10
2017-08-30T04:18:26.718Z,5.60
2017-08-30T04:20:54.210Z,5.67
2017-08-30T04:23:21.818Z,5.50
2017-08-30T04:25:49.331Z,5.93
2017-08-30T04:28:16.814Z,5.43
2017-08-30T04:30:44.340Z,9.37
2017-08-30T04:33:11.841Z,6.07
2017-08-30T04:35:39.538Z,5.63
2017-08-30T04:38:07.060Z,5.87
2017-08-30T04:40:34.765Z,5.17
2017-08-30T04:43:02.406Z,5.67
2017-08-30T04:45:29.891Z,6.00
2017-08-30T04:47:57.470Z,6.00
2017-08-30T04:50:24.970Z,7.47
2017-08-30T04:52:52.492Z,5.27
2017-08-30T04:55:20.005Z,5.37
2017-08-30T04:57:47.523Z,5.43
2017-08-30T05:00:15.230Z,5.10
2017-08-30T05:02:42.734Z,5.87
2017-08-30T05:05:10.239Z,7.40
2017-08-30T05:07:37.725Z,5.50
2017-08-30T05:10:08.744Z,5.50
2017-08-30T05:12:36.313Z,5.20
2017-08-30T05:15:03.934Z,5.20
2017-08-30T05:17:31.446Z,6.03
2017-08-30T05:19:58.966Z,8.37
2017-08-30T05:22:26.467Z,6.20
2017-08-30T05:24:53.994Z,5.80
2017-08-30T05:27:21.524Z,9.30
2017-08-30T05:29:49.025Z,6.40
2017-08-30T05:32:16.566Z,5.80
2017-08-30T05:34:44.034Z,6.67
2017-08-30T05:37:11.541Z,5.80
2017-08-30T05:39:39.054Z,6.70
2017-08-30T05:42:06.597Z,7.83
2017-08-30T05:44:34.132Z,7.33
2017-08-30T05:47:01.662Z,9.23
2017-08-30T05:49:29.242Z,11.40
2017-08-30T05:51:56.870Z,11.07
2017-08-30T05:54:24.388Z,11.37
2017-08-30T05:56:51.960Z,11.90
2017-08-30T05:59:19.478Z,16.13
2017-08-30T06:01:47.016Z,9.47
2017-08-30T06:04:14.532Z,9.20
2017-08-30T06:06:42.034Z,8.60
2017-08-30T06:09:09.565Z,9.03
2017-08-30T06:11:37.266Z,9.53
2017-08-30T06:14:04.775Z,12.53
2017-08-30T06:16:32.299Z,10.13
2017-08-30T06:18:59.825Z,10.63
2017-08-30T06:21:27.469Z,9.70
2017-08-30T06:23:54.995Z,8.87
2017-08-30T06:26:22.497Z,14.23
2017-08-30T06:28:50.009Z,9.73
2017-08-30T06:31:17.547Z,9.23
2017-08-30T06:33:45.053Z,10.53
2017-08-30T06:36:12.665Z,8.87
2017-08-30T06:38:40.201Z,11.53
2017-08-30T06:41:07.704Z,8.43
2017-08-30T06:43:35.217Z,12.40
2017-08-30T06:46:02.746Z,12.17
2017-08-30T06:48:30.302Z,16.57
2017-08-30T06:50:57.937Z,8.60
2017-08-30T06:53:25.485Z,10.67
2017-08-30T06:55:53.145Z,9.40
2017-08-30T06:58:20.649Z,10.00
2017-08-30T07:00:48.185Z,11.30
2017-08-30T07:03:15.773Z,10.37
2017-08-30T07:05:43.353Z,8.87
2017-08-30T07:08:10.972Z,8.93
2017-08-30T07:10:38.475Z,9.07
2017-08-30T07:13:06.008Z,9.43
2017-08-30T07:15:33.569Z,8.43
2017-08-30T07:18:01.102Z,8.80
2017-08-30T07:20:28.611Z,9.47
2017-08-30T07:22:56.125Z,9.17
2017-08-30T07:25:23.634Z,7.80
2017-08-30T07:27:51.131Z,8.57
2017-08-30T07:30:18.662Z,10.00
2017-08-30T07:32:46.155Z,8.97
2017-08-30T07:35:13.660Z,8.50
2017-08-30T07:37:41.182Z,7.53
2017-08-30T07:40:08.704Z,8.63
2017-08-30T07:42:36.251Z,10.37
2017-08-30T07:45:03.965Z,8.00
2017-08-30T07:47:31.524Z,10.20
2017-08-30T07:49:59.035Z,12.03
2017-08-30T07:52:26.585Z,8.80
2017-08-30T07:54:54.082Z,8.73
2017-08-30T07:57:21.665Z,8.13
2017-08-30T07:59:49.283Z,8.13
2017-08-30T08:02:16.796Z,8.10
2017-08-30T08:04:44.329Z,9.37
2017-08-30T08:07:11.835Z,8.70
2017-08-30T08:09:39.372Z,8.30
2017-08-30T08:12:06.971Z,8.00
2017-08-30T08:14:34.483Z,7.90
2017-08-30T08:17:02.010Z,9.00
2017-08-30T08:19:29.533Z,10.70
2017-08-30T08:21:57.054Z,9.10
2017-08-30T08:24:24.566Z,8.47
2017-08-30T08:26:52.097Z,8.17
2017-08-30T08:29:19.612Z,8.07
2017-08-30T08:31:47.160Z,8.20
2017-08-30T08:34:14.705Z,7.80
2017-08-30T08:36:42.222Z,7.57
2017-08-30T08:39:09.778Z,7.00
2017-08-30T08:41:37.281Z,8.93
2017-08-30T08:44:04.803Z,8.90
2017-08-30T08:46:33.079Z,8.40
2017-08-30T08:49:00.606Z,7.47
2017-08-30T08:51:28.123Z,9.23
2017-08-30T08:53:55.620Z,7.57
2017-08-30T08:56:23.160Z,8.50
2017-08-30T08:58:50.761Z,9.47
2017-08-30T09:01:18.286Z,7.60
2017-08-30T09:03:45.784Z,8.57
2017-08-30T09:06:13.324Z,9.93
2017-08-30T09:08:40.834Z,9.60
2017-08-30T09:11:08.357Z,8.63
2017-08-30T09:13:35.877Z,8.00
2017-08-30T09:16:03.419Z,8.20
2017-08-30T09:18:30.926Z,7.87
2017-08-30T09:20:58.445Z,8.33
2017-08-30T09:23:26.002Z,8.13
2017-08-30T09:25:53.526Z,7.90
2017-08-30T09:28:21.046Z,8.87
2017-08-30T09:30:48.579Z,8.10
2017-08-30T09:33:16.112Z,11.40
2017-08-30T09:35:43.645Z,7.37
2017-08-30T09:38:11.213Z,9.37
2017-08-30T09:40:38.849Z,10.13
2017-08-30T09:43:06.496Z,9.17
2017-08-30T09:45:34.016Z,7.90
2017-08-30T09:48:01.545Z,8.13
2017-08-30T09:50:29.093Z,8.73
2017-08-30T09:52:56.609Z,9.00
2017-08-30T09:55:24.148Z,8.43
2017-08-30T09:57:51.696Z,8.90
2017-08-30T10:00:19.218Z,8.30
2017-08-30T10:02:46.740Z,7.90
2017-08-30T10:05:14.329Z,9.50
2017-08-30T10:07:41.863Z,14.60
2017-08-30T10:10:09.372Z,8.27
2017-08-30T10:12:36.902Z,8.57
2017-08-30T10:15:04.469Z,8.23
2017-08-30T10:17:31.989Z,9.93
2017-08-30T10:19:59.499Z,8.97
2017-08-30T10:22:27.021Z,7.87
2017-08-30T10:24:54.526Z,9.20
2017-08-30T10:27:22.612Z,11.97
2017-08-30T10:29:50.172Z,9.10
2017-08-30T10:32:17.768Z,10.90
2017-08-30T10:34:45.267Z,11.83
2017-08-30T10:37:12.889Z,12.33
2017-08-30T10:39:40.441Z,11.60
2017-08-30T10:42:07.958Z,9.83
2017-08-30T10:44:35.500Z,10.40
2017-08-30T10:47:03.017Z,10.63
2017-08-30T10:49:30.533Z,11.20
2017-08-30T10:51:58.058Z,9.70
2017-08-30T10:54:25.613Z,14.47
2017-08-30T10:56:53.150Z,12.10
2017-08-30T10:59:20.676Z,10.40
2017-08-30T11:01:48.193Z,11.87
2017-08-30T11:04:15.786Z,12.30
2017-08-30T11:06:43.356Z,10.23
2017-08-30T11:09:10.863Z,10.80
2017-08-30T11:11:38.581Z,9.80
2017-08-30T11:14:06.167Z,9.63
2017-08-30T11:16:33.686Z,11.20
2017-08-30T11:19:01.389Z,13.43
2017-08-30T11:21:28.908Z,10.23
2017-08-30T11:23:56.436Z,12.47
2017-08-30T11:26:24.046Z,9.80
2017-08-30T11:28:51.558Z,12.13
2017-08-30T11:31:19.087Z,10.70
2017-08-30T11:33:46.599Z,15.27
2017-08-30T11:36:14.140Z,11.13
2017-08-30T11:38:41.652Z,10.10
2017-08-30T11:41:09.210Z,10.20
2017-08-30T11:43:36.743Z,13.07
2017-08-30T11:46:04.256Z,13.73
2017-08-30T11:48:31.789Z,16.43
2017-08-30T11:50:59.335Z,13.03
2017-08-30T11:53:26.853Z,9.50
2017-08-30T11:55:54.358Z,12.17
2017-08-30T11:58:21.917Z,10.30
2017-08-30T12:00:49.474Z,10.70
2017-08-30T12:03:17.026Z,10.40
2017-08-30T12:05:44.579Z,14.80
2017-08-30T12:08:12.245Z,12.73
2017-08-30T12:10:39.907Z,12.97
2017-08-30T12:13:07.438Z,11.73
2017-08-30T12:15:34.960Z,14.50
2017-08-30T12:18:02.520Z,10.07
2017-08-30T12:20:30.045Z,14.27
2017-08-30T12:22:57.559Z,12.77
2017-08-30T12:25:25.849Z,10.10
2017-08-30T12:27:53.331Z,10.00
2017-08-30T12:30:20.848Z,10.57
2017-08-30T12:32:48.377Z,10.73
2017-08-30T12:35:15.941Z,10.47
2017-08-30T12:37:49.083Z,11.10
2017-08-30T12:40:16.614Z,10.10
2017-08-30T12:42:45.022Z,10.03
2017-08-30T12:45:12.514Z,11.07
2017-08-30T12:47:40.065Z,11.37
2017-08-30T12:50:07.573Z,11.97
2017-08-30T12:52:35.098Z,15.47
2017-08-30T12:55:02.616Z,12.10
2017-08-30T12:57:30.112Z,12.43
2017-08-30T12:59:57.641Z,12.10
2017-08-30T13:02:25.271Z,11.20
2017-08-30T13:04:52.803Z,10.83
2017-08-30T13:07:20.329Z,12.23
2017-08-30T13:09:47.859Z,11.20
2017-08-30T13:12:15.369Z,12.70
2017-08-30T13:14:42.902Z,10.80
2017-08-30T13:17:10.426Z,12.13
2017-08-30T13:19:38.072Z,11.33
2017-08-30T13:22:05.802Z,10.93
2017-08-30T13:24:33.322Z,9.87
2017-08-30T13:27:01.596Z,11.57
2017-08-30T13:29:29.218Z,11.43
2017-08-30T13:31:56.729Z,11.83
2017-08-30T13:34:24.281Z,11.33
2017-08-30T13:36:51.884Z,11.03
2017-08-30T13:39:19.397Z,13.50
2017-08-30T13:41:46.932Z,15.20
2017-08-30T13:44:14.440Z,12.60
2017-08-30T13:46:41.969Z,11.10
2017-08-30T13:49:09.504Z,12.40
2017-08-30T13:51:37.048Z,12.27
2017-08-30T13:54:04.580Z,12.67
2017-08-30T13:56:32.093Z,12.33
2017-08-30T13:58:59.639Z,12.57
2017-08-30T14:01:27.165Z,15.87
2017-08-30T14:03:54.683Z,11.33
2017-08-30T14:06:22.330Z,12.27
2017-08-30T14:08:49.880Z,12.53
2017-08-30T14:11:17.443Z,13.60
2017-08-30T14:13:45.102Z,11.37
2017-08-30T14:16:12.691Z,11.63
2017-08-30T14:18:40.290Z,11.27
2017-08-30T14:21:07.824Z,11.17
2017-08-30T14:23:35.424Z,12.07
2017-08-30T14:26:02.967Z,18.87
2017-08-30T14:28:30.494Z,14.07
2017-08-30T14:30:58.080Z,12.13
2017-08-30T14:33:25.608Z,21.77
2017-08-30T14:35:53.085Z,12.07
2017-08-30T14:38:20.714Z,12.63
2017-08-30T14:40:48.292Z,12.30
2017-08-30T14:43:15.823Z,15.67
2017-08-30T14:45:43.357Z,18.00
2017-08-30T14:48:10.898Z,11.63
2017-08-30T14:50:38.435Z,11.27
2017-08-30T14:53:05.947Z,12.03
2017-08-30T14:55:33.727Z,20.07
2017-08-30T14:58:01.504Z,17.20
2017-08-30T15:00:29.092Z,12.50
2017-08-30T15:02:57.707Z,17.67
2017-08-30T15:05:25.229Z,11.70
2017-08-30T15:07:52.791Z,15.10
2017-08-30T15:10:21.269Z,11.57
2017-08-30T15:12:49.123Z,11.73
2017-08-30T15:15:16.670Z,13.07
2017-08-30T15:17:44.501Z,11.93
2017-08-30T15:20:12.052Z,15.00
2017-08-30T15:22:39.671Z,20.70
2017-08-30T15:25:07.256Z,18.50
2017-08-30T15:27:36.420Z,15.30
2017-08-30T15:30:03.931Z,12.03
2017-08-30T15:32:31.454Z,15.17
2017-08-30T15:34:58.929Z,13.90
2017-08-30T15:37:26.427Z,14.00
2017-08-30T15:39:53.963Z,14.03
2017-08-30T15:42:21.437Z,13.80
2017-08-30T15:44:48.972Z,12.43
2017-08-30T15:47:16.530Z,12.07
2017-08-30T15:49:44.784Z,13.80
2017-08-30T15:52:12.818Z,11.30
2017-08-30T15:54:40.361Z,11.90
2017-08-30T15:57:07.918Z,12.10
2017-08-30T15:59:36.099Z,13.63
2017-08-30T16:02:03.645Z,12.33
2017-08-30T16:04:31.192Z,12.53
2017-08-30T16:06:59.190Z,13.30
2017-08-30T16:09:26.765Z,12.73
2017-08-30T16:11:54.621Z,13.90
2017-08-30T16:14:22.235Z,13.97
2017-08-30T16:16:49.941Z,12.90
2017-08-30T16:19:17.492Z,13.10
2017-08-30T16:21:45.047Z,12.73
2017-08-30T16:24:12.565Z,14.00
2017-08-30T16:26:40.090Z,12.23
2017-08-30T16:29:08.581Z,13.03
2017-08-30T16:31:36.142Z,15.83
2017-08-30T16:34:03.652Z,12.53
2017-08-30T16:36:31.229Z,17.67
2017-08-30T16:38:58.787Z,13.77
2017-08-30T16:41:26.385Z,11.80
2017-08-30T16:43:53.992Z,13.10
2017-08-30T16:46:21.563Z,16.37
2017-08-30T16:48:49.125Z,15.10
2017-08-30T16:51:17.409Z,12.37
2017-08-30T16:53:44.972Z,17.50
2017-08-30T16:56:13.300Z,12.40
2017-08-30T16:58:41.730Z,14.97
2017-08-30T17:01:10.059Z,12.23
2017-08-30T17:03:37.638Z,13.07
2017-08-30T17:06:05.224Z,13.20
2017-08-30T17:08:32.801Z,13.90
2017-08-30T17:11:00.504Z,10.83
2017-08-30T17:13:28.079Z,14.43
2017-08-30T17:15:55.585Z,12.70
2017-08-30T17:18:23.125Z,14.33
2017-08-30T17:20:50.659Z,13.93
2017-08-30T17:23:18.182Z,15.57
2017-08-30T17:25:45.731Z,15.20
2017-08-30T17:28:13.297Z,15.70
2017-08-30T17:30:40.881Z,15.23
2017-08-30T17:33:08.373Z,13.43
2017-08-30T17:35:35.903Z,13.70
2017-08-30T17:38:03.432Z,17.73
2017-08-30T17:40:30.955Z,12.53
2017-08-30T17:42:58.538Z,14.73
2017-08-30T17:45:26.084Z,17.53
2017-08-30T17:47:53.614Z,17.50
2017-08-30T17:50:21.150Z,18.10
2017-08-30T17:52:48.708Z,17.40
2017-08-30T17:55:16.276Z,14.10
2017-08-30T17:57:43.810Z,12.90
2017-08-30T18:00:11.396Z,14.87
2017-08-30T18:02:38.945Z,17.80
2017-08-30T18:05:06.499Z,13.17
2017-08-30T18:07:34.053Z,20.93
2017-08-30T18:10:01.612Z,16.03
2017-08-30T18:12:29.180Z,17.03
2017-08-30T18:14:56.787Z,21.77
2017-08-30T18:17:24.345Z,24.17
2017-08-30T18:19:51.903Z,14.60
2017-08-30T18:22:19.439Z,17.77
2017-08-30T18:24:46.966Z,17.80
2017-08-30T18:27:14.835Z,17.90
2017-08-30T18:29:42.370Z,16.33
2017-08-30T18:32:09.929Z,16.63
2017-08-30T18:34:37.590Z,21.20
2017-08-30T18:37:05.168Z,17.03
2017-08-30T18:39:32.760Z,17.13
2017-08-30T18:42:00.334Z,20.90
2017-08-30T18:44:27.903Z,22.70
2017-08-30T18:46:55.585Z,18.70
2017-08-30T18:49:23.107Z,20.10
2017-08-30T18:51:50.714Z,21.50
2017-08-30T18:54:19.005Z,25.57
2017-08-30T18:56:46.579Z,19.20
2017-08-30T18:59:14.100Z,19.23
2017-08-30T19:01:41.712Z,18.50
2017-08-30T19:04:09.250Z,16.17
2017-08-30T19:06:36.836Z,17.70
2017-08-30T19:09:04.435Z,14.23
2017-08-30T19:11:32.061Z,19.50
2017-08-30T19:13:59.625Z,16.00
2017-08-30T19:16:27.249Z,15.90
2017-08-30T19:18:54.898Z,15.10
2017-08-30T19:21:22.471Z,15.27
2017-08-30T19:23:50.038Z,14.90
2017-08-30T19:26:17.520Z,15.27
2017-08-30T19:28:45.142Z,13.37
2017-08-30T19:31:12.698Z,19.97
2017-08-30T19:33:40.238Z,14.03
2017-08-30T19:36:07.796Z,11.73
2017-08-30T19:38:35.358Z,11.80
2017-08-30T19:41:02.929Z,13.80
2017-08-30T19:43:30.430Z,11.43
2017-08-30T19:45:57.924Z,12.70
2017-08-30T19:48:25.746Z,12.40
2017-08-30T19:50:54.229Z,12.67
2017-08-30T19:53:21.785Z,12.63
2017-08-30T19:55:49.373Z,13.23
2017-08-30T19:58:16.953Z,12.70
2017-08-30T20:00:44.532Z,14.47
2017-08-30T20:03:12.060Z,13.30
2017-08-30T20:05:39.599Z,10.87
2017-08-30T20:08:07.094Z,13.63
2017-08-30T20:10:34.704Z,12.80
2017-08-30T20:13:02.267Z,13.53
2017-08-30T20:15:29.804Z,13.43
2017-08-30T20:17:57.381Z,13.20
2017-08-30T20:20:25.015Z,21.40
2017-08-30T20:22:53.504Z,15.63
2017-08-30T20:25:21.032Z,11.90
2017-08-30T20:27:48.671Z,13.20
2017-08-30T20:30:16.311Z,18.63
2017-08-30T20:32:43.840Z,16.10
2017-08-30T20:35:11.523Z,13.30
2017-08-30T20:37:39.076Z,12.87
2017-08-30T20:40:06.602Z,16.63
2017-08-30T20:42:34.266Z,14.53
2017-08-30T20:45:02.464Z,15.03
2017-08-30T20:47:31.720Z,13.23
2017-08-30T20:50:00.632Z,11.93
2017-08-30T20:52:28.187Z,17.10
2017-08-30T20:54:55.703Z,15.70
2017-08-30T20:57:23.356Z,12.20
2017-08-30T21:09:40.933Z,12.30
2017-08-30T21:12:08.419Z,11.30
2017-08-30T21:14:35.961Z,11.47
2017-08-30T21:17:03.507Z,11.83
2017-08-30T21:19:31.042Z,10.70
2017-08-30T21:21:58.576Z,11.27
2017-08-30T21:24:26.086Z,10.23
2017-08-30T21:26:53.628Z,12.97
2017-08-30T21:29:21.204Z,10.97
2017-08-30T21:31:48.730Z,10.23
2017-08-30T21:34:16.261Z,10.53
2017-08-30T21:36:43.789Z,10.50
2017-08-30T21:39:11.322Z,10.53
2017-08-30T21:41:39.684Z,10.77
2017-08-30T21:44:07.215Z,10.33
2017-08-30T21:46:34.733Z,10.60
2017-08-30T21:49:02.251Z,11.53
2017-08-30T21:51:30.294Z,9.97
2017-08-30T21:53:57.835Z,11.13
2017-08-30T21:56:25.363Z,11.03
2017-08-30T21:58:52.875Z,15.97
2017-08-30T22:01:20.416Z,11.03
2017-08-30T22:03:48.001Z,10.00
2017-08-30T22:06:15.513Z,10.53
2017-08-30T22:08:43.057Z,9.83
2017-08-30T22:11:10.578Z,9.90
2017-08-30T22:13:38.073Z,9.73
2017-08-30T22:16:05.606Z,9.60
2017-08-30T22:18:33.173Z,9.93
2017-08-30T22:21:01.425Z,9.93
2017-08-30T22:23:28.970Z,9.40
2017-08-30T22:25:56.442Z,10.10
2017-08-30T22:28:24.087Z,9.63
2017-08-30T22:30:51.634Z,9.60
2017-08-30T22:33:19.134Z,9.50
2017-08-30T22:35:46.666Z,9.07
2017-08-30T22:38:14.191Z,9.43
2017-08-30T22:40:41.709Z,8.87
2017-08-30T22:43:09.235Z,9.40
2017-08-30T22:45:36.750Z,9.20
2017-08-30T22:48:04.269Z,8.90
2017-08-30T22:50:31.810Z,9.47
2017-08-30T22:52:59.458Z,8.73
2017-08-30T22:55:26.971Z,9.97
2017-08-30T22:57:54.486Z,9.20
2017-08-30T23:00:22.061Z,8.73
2017-08-30T23:02:49.601Z,8.87
2017-08-30T23:05:17.134Z,9.30
2017-08-30T23:07:44.644Z,9.13
2017-08-30T23:10:12.216Z,9.10
2017-08-30T23:12:39.725Z,10.07
2017-08-30T23:15:07.278Z,9.17
2017-08-30T23:17:34.802Z,9.40
2017-08-30T23:20:02.327Z,9.00
2017-08-30T23:22:29.825Z,8.67
2017-08-30T23:24:57.403Z,8.47
2017-08-30T23:27:24.915Z,9.27
2017-08-30T23:29:52.440Z,9.73
2017-08-30T23:32:19.957Z,8.57
2017-08-30T23:34:47.536Z,8.60
2017-08-30T23:37:15.058Z,8.53
2017-08-30T23:39:42.563Z,8.20
2017-08-30T23:42:10.225Z,9.50
2017-08-30T23:44:37.724Z,8.77
2017-08-30T23:47:05.341Z,7.80
2017-08-30T23:49:33.008Z,9.00
2017-08-30T23:52:00.509Z,8.20
2017-08-30T23:54:28.225Z,8.53
2017-08-30T23:56:55.830Z,8.20
2017-08-30T23:59:23.339Z,8.33
